createdAt,value
2022-08-26T10:33:00.979Z,24.20
2022-08-26T10:35:56.236Z,24.10
2022-08-26T10:38:41.535Z,23.80
2022-08-26T10:41:34.959Z,23.80
2022-08-26T10:44:21.586Z,23.80
2022-08-26T10:47:20.388Z,23.80
2022-08-26T10:50:06.625Z,23.80
2022-08-26T10:53:25.195Z,23.90
2022-08-26T10:56:38.327Z,23.90
2022-08-26T10:59:39.002Z,24.10
2022-08-26T11:02:47.066Z,24.20
2022-08-26T11:05:55.630Z,24.50
2022-08-26T11:08:47.358Z,24.90
2022-08-26T11:11:41.720Z,25.20
2022-08-26T11:14:46.178Z,25.20
2022-08-26T11:17:46.141Z,25.60
2022-08-26T11:20:47.249Z,25.80
2022-08-26T11:23:35.583Z,25.90
2022-08-26T11:26:36.250Z,25.80
2022-08-26T11:30:28.988Z,25.70
2022-08-26T11:33:46.201Z,25.80
2022-08-26T11:36:37.498Z,25.90
2022-08-26T11:39:24.852Z,25.90
2022-08-26T11:42:35.598Z,26.00
2022-08-26T11:45:40.844Z,26.00
2022-08-26T11:48:29.204Z,26.00
2022-08-26T11:51:24.947Z,26.00
2022-08-26T11:54:30.777Z,26.20
2022-08-26T11:57:20.890Z,26.10
2022-08-26T12:00:14.985Z,25.90
2022-08-26T12:03:08.247Z,25.80
2022-08-26T12:05:58.104Z,25.80
2022-08-26T12:08:45.232Z,25.70
2022-08-26T12:11:34.042Z,25.70
2022-08-26T12:14:27.984Z,25.90
2022-08-26T12:17:29.383Z,26.10
2022-08-26T12:20:54.222Z,26.20
2022-08-26T12:23:44.152Z,25.90
2022-08-26T12:26:32.854Z,25.90
2022-08-26T12:29:28.123Z,25.90
2022-08-26T12:32:17.878Z,25.80
2022-08-26T12:37:52.951Z,25.50
2022-08-26T12:40:44.211Z,25.20
2022-08-26T12:43:46.092Z,25.00
2022-08-26T12:46:34.632Z,24.90
2022-08-26T12:49:23.003Z,25.00
2022-08-26T12:52:29.883Z,25.10
2022-08-26T12:55:25.565Z,25.10
2022-08-26T12:58:24.668Z,25.00
2022-08-26T13:01:10.621Z,25.10
2022-08-26T13:03:56.287Z,25.30
2022-08-26T13:06:41.584Z,25.20
2022-08-26T13:09:29.493Z,25.20
2022-08-26T13:12:33.708Z,25.20
2022-08-26T13:15:28.328Z,25.10
2022-08-26T13:18:14.157Z,25.00
2022-08-26T13:20:59.340Z,25.00
2022-08-26T13:23:45.093Z,25.10
2022-08-26T13:26:32.026Z,25.20
2022-08-26T13:29:18.468Z,25.40
2022-08-26T13:32:06.047Z,25.40
2022-08-26T13:34:54.639Z,25.50
2022-08-26T13:37:41.954Z,25.50
2022-08-26T13:40:48.335Z,25.90
2022-08-26T13:43:34.057Z,26.20
2022-08-26T13:46:22.628Z,26.70
2022-08-26T13:49:08.205Z,26.80
2022-08-26T13:51:53.852Z,27.00
2022-08-26T13:54:39.540Z,27.20
2022-08-26T13:57:28.082Z,27.30
2022-08-26T14:00:14.659Z,27.40
2022-08-26T14:03:00.849Z,27.60
2022-08-26T14:05:49.423Z,27.80
2022-08-26T14:08:35.133Z,27.50
2022-08-26T14:11:21.286Z,27.20
2022-08-26T14:14:06.676Z,27.10
2022-08-26T14:16:59.389Z,26.90
2022-08-26T14:19:48.324Z,26.90
2022-08-26T14:22:33.880Z,27.00
2022-08-26T14:25:25.912Z,27.00
2022-08-26T14:28:14.598Z,27.00
2022-08-26T14:31:00.610Z,27.20
2022-08-26T14:33:46.071Z,27.60
2022-08-26T14:36:32.606Z,27.80
2022-08-26T14:39:18.059Z,28.30
2022-08-26T14:42:03.842Z,28.40
2022-08-26T14:44:55.364Z,28.50
2022-08-26T14:47:45.146Z,28.40
2022-08-26T14:50:33.084Z,30.10
2022-08-26T14:53:36.991Z,30.90
2022-08-26T14:56:22.640Z,30.90
2022-08-26T14:59:08.939Z,32.20
2022-08-26T15:01:55.293Z,33.70
2022-08-26T15:04:41.608Z,33.70
2022-08-26T15:07:27.071Z,33.00
2022-08-26T15:10:15.072Z,32.40
2022-08-26T15:13:03.466Z,32.00
2022-08-26T15:15:51.606Z,32.60
2022-08-26T15:18:37.179Z,34.10
2022-08-26T15:21:23.729Z,34.90
2022-08-26T15:24:09.072Z,35.10
2022-08-26T15:26:54.718Z,34.20
2022-08-26T15:29:40.598Z,33.70
2022-08-26T15:32:29.481Z,33.90
2022-08-26T15:35:16.293Z,33.60
2022-08-26T15:38:01.826Z,34.20
2022-08-26T15:40:50.422Z,34.90
2022-08-26T15:43:37.808Z,35.20
2022-08-26T15:46:25.024Z,35.20
2022-08-26T15:49:16.925Z,35.20
2022-08-26T15:52:05.450Z,35.40
2022-08-26T15:54:50.739Z,35.60
2022-08-26T15:57:36.343Z,35.50
2022-08-26T16:00:22.567Z,35.30
2022-08-26T16:03:08.310Z,34.70
2022-08-26T16:05:56.280Z,34.20
2022-08-26T16:08:43.381Z,34.10
2022-08-26T16:11:29.239Z,34.30
2022-08-26T16:14:17.549Z,34.60
2022-08-26T16:17:04.312Z,34.20
2022-08-26T16:19:50.145Z,33.50
2022-08-26T16:22:35.501Z,33.30
2022-08-26T16:25:21.211Z,33.50
2022-08-26T16:28:06.611Z,32.60
2022-08-26T16:30:57.300Z,32.10
2022-08-26T16:33:42.979Z,32.10
2022-08-26T16:36:40.402Z,32.20
2022-08-26T16:39:28.881Z,32.40
2022-08-26T16:42:28.421Z,32.20
2022-08-26T16:48:23.599Z,32.50
2022-08-26T16:51:16.092Z,32.70
2022-08-26T16:54:02.757Z,33.00
2022-08-26T16:56:48.313Z,33.10
2022-08-26T16:59:34.965Z,32.90
2022-08-26T17:02:20.675Z,32.70
2022-08-26T17:05:07.713Z,32.70
2022-08-26T17:08:00.740Z,32.90
2022-08-26T17:10:45.878Z,33.00
2022-08-26T17:13:35.100Z,32.90
2022-08-26T17:16:27.199Z,32.90
2022-08-26T17:19:12.855Z,32.80
2022-08-26T17:21:58.492Z,32.70
2022-08-26T17:24:44.249Z,32.60
2022-08-26T17:27:30.119Z,32.30
2022-08-26T17:30:17.915Z,32.20
2022-08-26T17:33:10.604Z,31.80
2022-08-26T17:35:57.124Z,31.60
2022-08-26T17:38:52.426Z,31.50
2022-08-26T17:41:40.439Z,31.20
2022-08-26T17:44:26.491Z,31.00
2022-08-26T17:47:15.116Z,30.70
2022-08-26T17:50:03.147Z,30.50
2022-08-26T17:52:48.824Z,30.40
2022-08-26T17:55:34.455Z,30.10
2022-08-26T17:58:23.220Z,29.80
2022-08-26T18:01:11.960Z,29.60
2022-08-26T18:04:00.393Z,29.30
2022-08-26T18:06:46.855Z,29.00
2022-08-26T18:09:32.533Z,28.60
2022-08-26T18:12:17.776Z,28.30
2022-08-26T18:15:04.431Z,28.00
2022-08-26T18:17:49.871Z,27.50
2022-08-26T18:20:38.682Z,27.00
2022-08-26T18:23:24.848Z,26.60
2022-08-26T18:26:30.280Z,26.10
2022-08-26T18:29:19.544Z,25.50
2022-08-26T18:32:05.211Z,25.00
2022-08-26T18:34:53.298Z,24.60
2022-08-26T18:37:39.173Z,24.20
2022-08-26T18:40:25.532Z,23.80
2022-08-26T18:43:13.271Z,23.40
2022-08-26T18:46:04.439Z,23.10
2022-08-26T18:48:53.554Z,22.80
2022-08-26T18:51:39.159Z,22.50
2022-08-26T18:54:24.774Z,22.30
2022-08-26T18:57:11.483Z,22.10
2022-08-26T18:59:56.977Z,21.90
2022-08-26T19:02:42.678Z,21.70
2022-08-26T19:05:38.569Z,21.50
2022-08-26T19:08:24.420Z,21.40
2022-08-26T19:11:10.584Z,21.20
2022-08-26T19:13:56.326Z,21.00
2022-08-26T19:16:45.115Z,20.90
2022-08-26T19:19:31.695Z,20.80
2022-08-26T19:22:17.271Z,20.60
2022-08-26T19:25:05.668Z,20.60
2022-08-26T19:27:51.151Z,20.50
2022-08-26T19:30:41.393Z,20.30
2022-08-26T19:33:28.354Z,20.20
2022-08-26T19:36:21.959Z,20.20
2022-08-26T19:39:08.219Z,20.10
2022-08-26T19:41:54.111Z,20.00
2022-08-26T19:44:57.802Z,19.90
2022-08-26T19:47:53.502Z,19.80
2022-08-26T19:50:48.446Z,19.80
2022-08-26T19:53:33.818Z,19.70
2022-08-26T19:56:19.927Z,19.60
2022-08-26T19:59:05.315Z,19.60
2022-08-26T20:01:52.971Z,19.50
2022-08-26T20:04:53.491Z,19.50
2022-08-26T20:07:39.054Z,19.40
2022-08-26T20:10:24.764Z,19.40
2022-08-26T20:13:10.191Z,19.30
2022-08-26T20:15:55.773Z,19.20
2022-08-26T20:19:00.658Z,19.20
2022-08-26T20:21:46.662Z,19.20
2022-08-26T20:24:33.777Z,19.10
2022-08-26T20:27:19.763Z,19.10
2022-08-26T20:30:07.511Z,19.00
2022-08-26T20:32:53.158Z,19.00
2022-08-26T20:35:41.009Z,18.90
2022-08-26T20:38:26.612Z,18.90
2022-08-26T20:41:17.431Z,18.80
2022-08-26T20:44:04.789Z,18.80
2022-08-26T20:47:09.231Z,18.80
2022-08-26T20:49:56.734Z,18.70
2022-08-26T20:52:46.280Z,18.70
2022-08-26T20:55:31.667Z,18.60
2022-08-26T20:58:17.100Z,18.60
2022-08-26T21:01:07.276Z,18.60
2022-08-26T21:03:55.630Z,18.60
2022-08-26T21:06:43.780Z,18.50
2022-08-26T21:09:38.048Z,18.50
2022-08-26T21:12:23.552Z,18.50
2022-08-26T21:15:12.404Z,18.40
2022-08-26T21:18:00.494Z,18.40
2022-08-26T21:20:47.607Z,18.40
2022-08-26T21:23:33.426Z,18.30
2022-08-26T21:26:21.016Z,18.30
2022-08-26T21:29:09.620Z,18.30
2022-08-26T21:31:55.312Z,18.30
2022-08-26T21:34:40.779Z,18.30
2022-08-26T21:37:27.870Z,18.30
2022-08-26T21:40:13.565Z,18.30
2022-08-26T21:42:59.030Z,18.20
2022-08-26T21:45:44.621Z,18.20
2022-08-26T21:48:34.660Z,18.10
2022-08-26T21:51:23.044Z,18.10
2022-08-26T21:54:11.238Z,18.10
2022-08-26T21:57:00.450Z,18.00
2022-08-26T21:59:46.063Z,18.00
2022-08-26T22:02:31.419Z,17.90
2022-08-26T22:05:16.918Z,17.90
2022-08-26T22:08:02.948Z,17.80
2022-08-26T22:10:52.082Z,17.80
2022-08-26T22:13:48.660Z,17.80
2022-08-26T22:16:34.034Z,17.80
2022-08-26T22:19:23.476Z,17.70
2022-08-26T22:22:09.257Z,17.70
2022-08-26T22:24:54.404Z,17.70
2022-08-26T22:27:42.720Z,17.70
2022-08-26T22:30:28.702Z,17.60
2022-08-26T22:33:15.625Z,17.60
2022-08-26T22:36:01.244Z,17.60
2022-08-26T22:38:47.848Z,17.60
2022-08-26T22:41:34.984Z,17.60
2022-08-26T22:44:22.168Z,17.60
2022-08-26T22:47:07.771Z,17.50
2022-08-26T22:49:53.280Z,17.50
2022-08-26T22:52:38.781Z,17.50
2022-08-26T22:55:24.445Z,17.40
2022-08-26T22:58:12.239Z,17.40
2022-08-26T23:00:59.340Z,17.30
2022-08-26T23:03:46.432Z,17.30
2022-08-26T23:06:33.829Z,17.20
2022-08-26T23:09:19.456Z,17.20
2022-08-26T23:12:08.447Z,17.10
2022-08-26T23:14:53.905Z,17.10
2022-08-26T23:17:39.902Z,17.10
2022-08-26T23:20:26.693Z,17.10
2022-08-26T23:23:11.944Z,17.20
2022-08-26T23:26:05.589Z,17.20
2022-08-26T23:28:53.419Z,17.20
2022-08-26T23:31:41.182Z,17.20
2022-08-26T23:34:48.151Z,17.30
2022-08-26T23:37:36.391Z,17.20
2022-08-26T23:40:28.495Z,17.30
2022-08-26T23:43:16.632Z,17.20
2022-08-26T23:46:07.002Z,17.20
2022-08-26T23:48:52.771Z,17.20
2022-08-26T23:51:57.192Z,17.20
2022-08-26T23:54:42.687Z,17.20
2022-08-26T23:57:28.378Z,17.20
